Time;durP1;ratioP1;P1;durP2;ratioP2;P2;SDS_P1;SDS_P2;PMS_P1;PMS_P2;Temp;Humidity;BMP_temperature;BMP_pressure;BME280_temperature;BME280_humidity;BME280_pressure;Samples;Min_cycle;Max_cycle;Signal;HPM_P1;HPM_P2
2024/03/20 00:00:54;;;;;;;35.55;17.83;;;1.00;99.90;;;;;;5108421;28;20036;-79
2024/03/20 00:03:20;;;;;;;33.78;17.50;;;;;;;;;;5103858;28;20040;-77
2024/03/20 00:05:46;;;;;;;34.63;18.02;;;;;;;;;;5087376;28;20095;-78
2024/03/20 00:08:12;;;;;;;33.75;16.77;;;;;;;;;;5081624;28;20028;-76
2024/03/20 00:10:38;;;;;;;36.97;16.48;;;;;;;;;;5091542;28;20233;-76
2024/03/20 00:13:04;;;;;;;35.58;16.60;;;;;;;;;;5079981;28;20043;-75
2024/03/20 00:15:30;;;;;;;29.13;15.20;;;;;;;;;;5084202;28;20058;-76
2024/03/20 00:17:56;;;;;;;33.80;16.65;;;;;;;;;;5094409;28;20040;-76
2024/03/20 00:20:24;;;;;;;36.13;16.67;;;;;;;;;;5103467;28;20102;-77
2024/03/20 00:22:51;;;;;;;35.58;16.75;;;;;;;;;;5087110;28;20040;-81
2024/03/20 00:25:17;;;;;;;34.05;16.42;;;;;;;;;;5103772;28;20036;-80
2024/03/20 00:27:44;;;;;;;36.58;18.42;;;;;;;;;;5095641;28;20029;-79
2024/03/20 00:30:11;;;;;;;36.70;16.98;;;;;;;;;;5086374;28;20028;-78
2024/03/20 00:32:37;;;;;;;31.65;16.92;;;;;;;;;;5096994;28;20106;-78
2024/03/20 00:35:05;;;;;;;35.08;17.48;;;0.80;93.30;;;;;;5092387;28;20206;-79
2024/03/20 00:37:31;;;;;;;32.65;15.98;;;;;;;;;;5104564;28;20076;-82
2024/03/20 00:39:57;;;;;;;34.58;16.58;;;;;;;;;;5089585;28;20101;-77
2024/03/20 00:42:25;;;;;;;32.42;16.02;;;;;;;;;;5088265;28;20036;-80
2024/03/20 00:44:51;;;;;;;35.08;17.95;;;;;;;;;;5100050;28;20032;-79
2024/03/20 00:47:18;;;;;;;33.80;18.20;;;;;;;;;;5098695;28;20040;-80
2024/03/20 00:49:45;;;;;;;35.92;16.85;;;;;;;;;;5095054;28;20032;-79
2024/03/20 00:52:11;;;;;;;31.95;16.42;;;;;;;;;;5098081;28;20324;-78
2024/03/20 00:54:39;;;;;;;32.35;16.88;;;;;;;;;;5093230;28;20032;-77
2024/03/20 00:57:05;;;;;;;36.60;17.50;;;;;;;;;;5106844;28;20027;-80
2024/03/20 00:59:31;;;;;;;38.83;16.63;;;;;;;;;;5097492;28;20325;-77
2024/03/20 01:01:57;;;;;;;33.63;15.88;;;;;;;;;;5099628;28;20103;-79
2024/03/20 01:04:23;;;;;;;34.38;16.13;;;;;;;;;;5103888;28;20046;-78
2024/03/20 01:06:49;;;;;;;33.78;17.55;;;;;;;;;;5102577;28;20075;-80
2024/03/20 01:09:15;;;;;;;34.28;16.15;;;;;;;;;;5096031;28;20039;-81
2024/03/20 01:11:41;;;;;;;34.80;17.70;;;;;;;;;;5101531;28;20025;-80
2024/03/20 01:14:07;;;;;;;33.25;16.35;;;;;;;;;;5104470;28;20039;-78
2024/03/20 01:16:33;;;;;;;33.47;16.83;;;;;;;;;;5081886;28;20257;-78
2024/03/20 01:18:59;;;;;;;32.28;17.25;;;;;;;;;;5091798;28;20036;-79
2024/03/20 01:21:26;;;;;;;34.75;16.38;;;;;;;;;;5102435;28;20031;-77
2024/03/20 01:23:52;;;;;;;33.20;15.82;;;;;;;;;;5098319;28;20332;-80
2024/03/20 01:26:19;;;;;;;32.50;16.08;;;;;;;;;;5100939;28;20374;-77
2024/03/20 01:28:45;;;;;;;31.60;16.58;;;;;;;;;;5110467;28;20020;-81
2024/03/20 01:31:11;;;;;;;32.35;15.25;;;;;;;;;;5103849;28;20103;-78
2024/03/20 01:33:37;;;;;;;40.05;17.70;;;;;;;;;;5090616;28;20040;-79
2024/03/20 01:36:04;;;;;;;35.58;16.88;;;;;;;;;;5098657;28;20367;-79
2024/03/20 01:38:30;;;;;;;35.10;16.45;;;;;;;;;;5080491;28;20047;-79
2024/03/20 01:40:56;;;;;;;32.42;15.85;;;;;;;;;;5100756;28;20106;-78
2024/03/20 01:43:22;;;;;;;33.38;16.80;;;;;;;;;;5091332;28;20027;-77
2024/03/20 01:45:49;;;;;;;35.33;17.98;;;;;;;;;;5095676;28;20194;-79
2024/03/20 01:48:15;;;;;;;35.00;17.73;;;;;;;;;;5080442;28;20032;-81
2024/03/20 01:50:41;;;;;;;33.38;17.00;;;;;;;;;;5078008;28;20040;-79
2024/03/20 01:53:08;;;;;;;33.40;16.88;;;;;;;;;;5093342;28;20260;-80
2024/03/20 01:55:36;;;;;;;36.42;17.23;;;0.60;95.40;;;;;;5094179;28;20087;-79
2024/03/20 01:58:02;;;;;;;31.25;15.07;;;;;;;;;;5081636;28;20056;-77
2024/03/20 02:00:28;;;;;;;34.10;17.52;;;;;;;;;;5103132;28;20073;-77
2024/03/20 02:02:59;;;;;;;31.52;15.80;;;0.50;99.90;;;;;;5098511;28;20036;-77
2024/03/20 02:05:27;;;;;;;34.88;16.23;;;;;;;;;;5082599;28;20135;-80
2024/03/20 02:07:56;;;;;;;37.92;18.15;;;;;;;;;;5087390;28;20039;-79
2024/03/20 02:10:23;;;;;;;34.80;16.38;;;0.40;99.90;;;;;;5082738;28;20166;-79
2024/03/20 02:12:49;;;;;;;39.03;16.85;;;;;;;;;;5086962;28;20050;-79
2024/03/20 02:15:15;;;;;;;33.85;16.85;;;;;;;;;;5095928;28;20054;-78
2024/03/20 02:17:41;;;;;;;34.55;17.70;;;;;;;;;;5098681;28;20086;-77
2024/03/20 02:20:08;;;;;;;35.08;17.00;;;;;;;;;;5097234;28;20443;-77
2024/03/20 02:22:42;;;;;;;38.97;16.17;;;0.50;98.60;;;;;;5098264;28;20036;-77
2024/03/20 02:25:12;;;;;;;38.20;18.67;;;;;;;;;;5098203;28;20244;-78
2024/03/20 02:27:39;;;;;;;33.97;16.85;;;;;;;;;;5084665;28;20029;-79
2024/03/20 02:30:12;;;;;;;35.67;18.50;;;0.30;97.80;;;;;;5091994;28;20062;-77
2024/03/20 02:32:40;;;;;;;40.15;17.85;;;0.50;97.50;;;;;;5085957;28;20032;-79
2024/03/20 02:35:06;;;;;;;38.22;18.02;;;;;;;;;;5083645;28;20225;-80
2024/03/20 02:37:32;;;;;;;38.13;18.60;;;;;;;;;;5081935;28;20100;-79
2024/03/20 02:39:59;;;;;;;41.25;19.08;;;;;;;;;;5086659;28;20036;-77
2024/03/20 02:42:25;;;;;;;37.63;17.63;;;;;;;;;;5108889;28;20040;-80
2024/03/20 02:44:52;;;;;;;36.88;16.58;;;0.70;97.60;;;;;;5096169;28;20036;-80
2024/03/20 02:47:18;;;;;;;39.42;17.88;;;;;;;;;;5116663;28;20028;-81
2024/03/20 02:49:46;;;;;;;37.00;18.58;;;;;;;;;;5114846;28;20069;-78
2024/03/20 02:52:12;;;;;;;38.80;17.95;;;;;;;;;;5098167;28;20234;-81
2024/03/20 02:54:38;;;;;;;37.72;17.80;;;;;;;;;;5097072;28;20027;-78
2024/03/20 02:57:04;;;;;;;45.22;19.65;;;;;;;;;;5101138;28;20063;-77
2024/03/20 02:59:30;;;;;;;37.50;17.73;;;;;;;;;;5092882;28;20063;-79
2024/03/20 03:01:56;;;;;;;36.38;18.05;;;;;;;;;;5086772;28;20033;-77
2024/03/20 03:04:22;;;;;;;37.38;18.20;;;0.40;99.90;;;;;;5086174;28;20328;-80
2024/03/20 03:06:49;;;;;;;35.38;17.50;;;;;;;;;;5091159;28;20073;-76
2024/03/20 03:09:18;;;;;;;39.88;19.00;;;0.60;98.30;;;;;;5096839;28;20107;-78
2024/03/20 03:11:44;;;;;;;40.33;18.40;;;;;;;;;;5094947;28;20032;-78
2024/03/20 03:14:15;;;;;;;38.25;18.27;;;0.20;98.20;;;;;;5109352;28;20086;-77
2024/03/20 03:16:41;;;;;;;41.47;18.50;;;;;;;;;;5082167;28;20037;-80
2024/03/20 03:19:09;;;;;;;37.92;17.95;;;;;;;;;;5086864;28;20232;-77
2024/03/20 03:21:36;;;;;;;40.00;18.48;;;;;;;;;;5081489;28;20032;-78
2024/03/20 03:24:05;;;;;;;38.53;18.60;;;;;;;;;;5090628;28;20037;-83
2024/03/20 03:26:36;;;;;;;41.15;19.13;;;0.30;99.90;;;;;;5099040;28;20035;-81
2024/03/20 03:29:02;;;;;;;39.15;18.70;;;;;;;;;;5089353;28;20032;-81
2024/03/20 03:31:28;;;;;;;41.38;19.27;;;;;;;;;;5103944;28;20055;-80
2024/03/20 03:33:54;;;;;;;44.15;19.73;;;;;;;;;;5114849;28;20342;-81
2024/03/20 03:36:20;;;;;;;39.03;18.45;;;;;;;;;;5104819;28;20067;-83
2024/03/20 03:38:46;;;;;;;36.80;18.00;;;;;;;;;;5092089;28;20041;-83
2024/03/20 03:41:12;;;;;;;39.13;19.00;;;;;;;;;;5088084;28;20050;-78
2024/03/20 03:43:38;;;;;;;43.58;20.13;;;;;;;;;;5080440;28;20119;-82
2024/03/20 03:46:05;;;;;;;37.80;18.58;;;;;;;;;;5080497;28;20037;-80
2024/03/20 03:48:31;;;;;;;40.22;18.42;;;;;;;;;;5093655;28;20069;-80
2024/03/20 03:50:57;;;;;;;44.83;18.50;;;;;;;;;;5099976;28;20075;-80
2024/03/20 03:53:23;;;;;;;42.20;18.98;;;;;;;;;;5099968;28;20040;-79
2024/03/20 03:55:49;;;;;;;41.63;19.00;;;;;;;;;;5096970;28;20039;-79
2024/03/20 03:58:18;;;;;;;44.05;20.45;;;;;;;;;;5104595;28;20036;-82
2024/03/20 04:00:46;;;;;;;39.70;18.80;;;;;;;;;;5103967;28;20043;-80
2024/03/20 04:03:12;;;;;;;40.90;18.90;;;;;;;;;;5093995;28;20092;-80
2024/03/20 04:05:38;;;;;;;42.08;19.15;;;;;;;;;;5101826;28;20028;-79
2024/03/20 04:08:05;;;;;;;47.25;20.42;;;;;;;;;;5079509;28;20048;-80
2024/03/20 04:10:31;;;;;;;45.30;19.63;;;;;;;;;;5099634;28;20098;-80
2024/03/20 04:12:57;;;;;;;37.22;18.38;;;;;;;;;;5096330;28;20064;-80
2024/03/20 04:15:23;;;;;;;46.28;21.42;;;;;;;;;;5079559;28;20418;-79
2024/03/20 04:17:49;;;;;;;42.75;20.45;;;;;;;;;;5112625;28;20269;-83
2024/03/20 04:20:15;;;;;;;43.45;19.60;;;;;;;;;;5095772;28;20064;-78
2024/03/20 04:22:41;;;;;;;47.30;22.02;;;;;;;;;;5088455;28;20085;-79
2024/03/20 04:25:07;;;;;;;45.65;18.77;;;-0.30;99.90;;;;;;5090784;28;20047;-80
2024/03/20 04:27:35;;;;;;;39.80;18.83;;;-0.20;99.90;;;;;;5078724;28;20047;-82
2024/03/20 04:30:02;;;;;;;41.03;18.73;;;;;;;;;;5085295;28;20055;-79
2024/03/20 04:32:29;;;;;;;41.85;20.05;;;;;;;;;;5094122;28;20131;-79
2024/03/20 04:34:55;;;;;;;43.17;20.17;;;;;;;;;;5103970;28;20388;-79
2024/03/20 04:37:21;;;;;;;40.40;19.42;;;;;;;;;;5103920;28;20339;-80
2024/03/20 04:39:47;;;;;;;38.13;17.90;;;;;;;;;;5103848;28;20066;-81
2024/03/20 04:42:13;;;;;;;46.90;20.52;;;;;;;;;;5104284;28;20098;-80
2024/03/20 04:44:39;;;;;;;44.75;20.33;;;;;;;;;;5095765;28;20040;-79
2024/03/20 04:47:05;;;;;;;41.72;19.42;;;;;;;;;;5088918;28;20229;-81
2024/03/20 04:49:31;;;;;;;40.55;19.83;;;;;;;;;;5090744;28;20322;-79
2024/03/20 04:51:57;;;;;;;37.47;18.27;;;;;;;;;;5107892;28;20035;-79
2024/03/20 04:54:23;;;;;;;40.63;19.13;;;;;;;;;;5105692;28;20043;-82
2024/03/20 04:56:49;;;;;;;42.55;19.75;;;;;;;;;;5085719;28;20040;-79
2024/03/20 04:59:15;;;;;;;42.90;20.08;;;;;;;;;;5090661;28;20036;-80
2024/03/20 05:01:41;;;;;;;42.67;20.23;;;;;;;;;;5091061;28;20306;-77
2024/03/20 05:04:08;;;;;;;42.90;19.10;;;;;;;;;;5090411;28;20047;-81
2024/03/20 05:06:34;;;;;;;41.15;18.75;;;;;;;;;;5095372;28;20280;-81
2024/03/20 05:09:00;;;;;;;41.40;20.90;;;;;;;;;;5104284;28;20046;-81
2024/03/20 05:11:26;;;;;;;42.15;19.83;;;;;;;;;;5078852;28;20074;-80
2024/03/20 05:13:51;;;;;;;43.22;19.60;;;0.20;99.90;;;;;;5100161;28;20243;-80
2024/03/20 05:16:17;;;;;;;43.00;19.70;;;;;;;;;;5078854;28;20076;-82
2024/03/20 05:18:43;;;;;;;41.53;19.42;;;;;;;;;;5082742;28;20040;-83
2024/03/20 05:21:10;;;;;;;44.35;21.40;;;;;;;;;;5081895;28;20067;-83
2024/03/20 05:23:36;;;;;;;45.97;19.65;;;;;;;;;;5107585;28;20039;-82
2024/03/20 05:26:02;;;;;;;37.38;18.48;;;;;;;;;;5107150;28;20038;-80
2024/03/20 05:28:28;;;;;;;39.22;18.63;;;;;;;;;;5090409;28;20448;-81
2024/03/20 05:30:54;;;;;;;39.78;19.08;;;;;;;;;;5088292;28;20043;-83
2024/03/20 05:33:23;;;;;;;41.00;18.65;;;0.20;99.90;;;;;;5078660;28;20046;-79
2024/03/20 05:35:49;;;;;;;47.65;21.52;;;;;;;;;;5092250;28;20064;-80
2024/03/20 05:38:16;;;;;;;40.55;19.05;;;;;;;;;;5092068;28;20036;-81
2024/03/20 05:40:42;;;;;;;38.42;18.38;;;;;;;;;;5086455;28;20033;-83
2024/03/20 05:43:08;;;;;;;44.10;19.70;;;;;;;;;;5080269;28;20388;-80
2024/03/20 05:45:35;;;;;;;38.92;18.13;;;;;;;;;;5087391;28;20380;-79
2024/03/20 05:48:01;;;;;;;39.80;19.58;;;;;;;;;;5099761;28;20028;-80
2024/03/20 05:50:26;;;;;;;40.72;18.70;;;0.50;99.90;;;;;;5078948;28;20341;-78
2024/03/20 05:52:53;;;;;;;38.05;19.17;;;;;;;;;;5089507;28;20042;-80
2024/03/20 05:55:20;;;;;;;39.53;19.13;;;0.60;99.90;;;;;;5090536;28;20213;-80
2024/03/20 05:57:50;;;;;;;34.97;18.75;;;;;;;;;;5106512;28;20088;-82
2024/03/20 06:00:20;;;;;;;38.78;19.67;;;0.60;99.90;;;;;;5094735;28;20214;-81
2024/03/20 06:02:47;;;;;;;43.13;19.75;;;;;;;;;;5078252;28;20059;-84
2024/03/20 06:05:16;;;;;;;39.97;19.95;;;;;;;;;;5091137;28;20074;-83
2024/03/20 06:07:42;;;;;;;42.95;20.55;;;;;;;;;;5098273;28;20165;-83
2024/03/20 06:10:08;;;;;;;32.90;17.65;;;;;;;;;;5099701;28;20032;-84
2024/03/20 06:12:35;;;;;;;39.92;19.13;;;;;;;;;;5093019;28;20053;-81
2024/03/20 06:15:02;;;;;;;41.55;20.05;;;;;;;;;;5096894;28;20103;-85
2024/03/20 06:17:28;;;;;;;34.00;17.35;;;;;;;;;;5110113;28;20228;-83
2024/03/20 06:19:56;;;;;;;40.83;18.65;;;;;;;;;;5101613;28;20331;-83
2024/03/20 06:22:22;;;;;;;37.40;18.77;;;;;;;;;;5086901;28;20032;-85
2024/03/20 06:24:48;;;;;;;35.50;17.17;;;;;;;;;;5099283;28;20111;-85
2024/03/20 06:27:14;;;;;;;37.38;18.35;;;;;;;;;;5115594;28;20028;-83
2024/03/20 06:29:40;;;;;;;36.95;18.73;;;;;;;;;;5092411;28;20054;-84
2024/03/20 06:32:06;;;;;;;34.28;17.27;;;;;;;;;;5116071;28;20397;-83
2024/03/20 06:34:32;;;;;;;35.67;17.65;;;;;;;;;;5111236;28;20036;-85
2024/03/20 06:36:58;;;;;;;39.03;18.98;;;;;;;;;;5106608;28;20407;-82
2024/03/20 06:39:24;;;;;;;37.35;18.58;;;;;;;;;;5097263;28;20077;-81
2024/03/20 06:41:50;;;;;;;38.42;18.70;;;;;;;;;;5112025;28;20031;-84
2024/03/20 06:44:17;;;;;;;38.80;18.52;;;;;;;;;;5114683;28;20080;-84
2024/03/20 06:46:45;;;;;;;40.88;19.77;;;;;;;;;;5099807;28;20032;-83
2024/03/20 06:49:11;;;;;;;40.65;20.35;;;;;;;;;;5099281;28;20032;-86
2024/03/20 06:51:38;;;;;;;35.85;19.08;;;;;;;;;;5102014;28;20031;-83
2024/03/20 06:54:16;;;;;;;42.03;19.63;;;;;;;;;;5113270;28;20035;-83
2024/03/20 06:56:44;;;;;;;41.42;21.13;;;;;;;;;;5094710;28;20118;-85
2024/03/20 06:59:11;;;;;;;38.17;19.17;;;;;;;;;;5106092;28;20038;-82
2024/03/20 07:01:38;;;;;;;42.53;19.17;;;;;;;;;;5115860;28;20111;-80
2024/03/20 07:04:04;;;;;;;39.20;18.73;;;;;;;;;;5097770;28;20032;-82
2024/03/20 07:06:30;;;;;;;37.58;18.77;;;;;;;;;;5112763;28;20027;-81
2024/03/20 07:08:56;;;;;;;36.53;18.75;;;;;;;;;;5112265;28;20024;-84
2024/03/20 07:11:22;;;;;;;37.03;19.60;;;;;;;;;;5088163;28;20052;-80
2024/03/20 07:13:49;;;;;;;36.08;18.92;;;4.40;89.60;;;;;;5085694;28;20024;-83
2024/03/20 07:16:15;;;;;;;38.03;18.25;;;;;;;;;;5091273;28;20031;-82
2024/03/20 07:18:41;;;;;;;35.90;19.40;;;;;;;;;;5118604;27;20072;-83
2024/03/20 07:21:09;;;;;;;33.42;18.33;;;;;;;;;;5101405;28;20033;-81
2024/03/20 07:23:36;;;;;;;41.25;20.88;;;;;;;;;;5099968;28;20343;-83
2024/03/20 07:26:03;;;;;;;34.97;18.02;;;;;;;;;;5109777;28;20040;-83
2024/03/20 07:28:30;;;;;;;35.60;18.83;;;;;;;;;;5112299;22;20050;-81
2024/03/20 07:30:56;;;;;;;39.15;19.42;;;;;;;;;;5030824;28;20033;-80
2024/03/20 07:33:21;;;;;;;29.23;16.55;;;5.30;82.00;;;;;;5002360;28;20025;-81
2024/03/20 07:35:47;;;;;;;37.28;18.30;;;;;;;;;;5016679;28;20072;-81
2024/03/20 07:38:14;;;;;;;31.00;16.02;;;;;;;;;;5027786;28;20110;-82
2024/03/20 07:40:42;;;;;;;30.83;16.58;;;6.20;90.70;;;;;;5023887;28;20026;-82
2024/03/20 07:43:09;;;;;;;30.38;16.80;;;;;;;;;;5046329;28;20029;-83
2024/03/20 07:45:38;;;;;;;32.15;16.73;;;;;;;;;;5024470;28;20037;-80
2024/03/20 07:48:05;;;;;;;34.58;19.15;;;;;;;;;;5023796;28;20043;-80
2024/03/20 07:50:30;;;;;;;31.85;17.23;;;;;;;;;;5017160;28;20038;-80
2024/03/20 07:52:57;;;;;;;46.65;19.27;;;;;;;;;;5021853;28;20044;-80
2024/03/20 07:55:23;;;;;;;32.78;19.25;;;;;;;;;;5024339;28;20322;-82
2024/03/20 07:57:49;;;;;;;33.08;18.83;;;;;;;;;;5011926;28;20052;-81
2024/03/20 08:00:27;;;;;;;35.50;19.55;;;;;;;;;;5019349;28;20021;-80
2024/03/20 08:02:57;;;;;;;32.92;18.23;;;;;;;;;;5031356;28;20097;-79
2024/03/20 08:05:25;;;;;;;31.50;17.33;;;7.10;65.60;;;;;;5020444;28;20092;-79
2024/03/20 08:07:54;;;;;;;28.17;14.80;;;;;;;;;;5018139;28;20039;-81
2024/03/20 08:10:22;;;;;;;29.20;15.25;;;;;;;;;;5016409;28;20084;-80
2024/03/20 08:12:49;;;;;;;25.80;14.38;;;;;;;;;;5019038;28;20116;-84
2024/03/20 08:15:15;;;;;;;24.90;14.70;;;;;;;;;;5019614;28;20088;-79
2024/03/20 08:17:41;;;;;;;28.90;14.45;;;;;;;;;;4999667;28;20026;-82
2024/03/20 08:20:12;;;;;;;28.70;15.90;;;;;;;;;;5035912;28;20033;-80
2024/03/20 08:22:43;;;;;;;25.85;13.73;;;;;;;;;;5054884;28;20279;-81
2024/03/20 08:25:12;;;;;;;23.35;14.02;;;;;;;;;;5030479;28;20073;-83
2024/03/20 08:27:38;;;;;;;19.02;12.05;;;;;;;;;;5026991;28;20076;-81
2024/03/20 08:30:08;;;;;;;27.33;13.95;;;8.00;59.80;;;;;;5039483;28;20261;-81
2024/03/20 08:32:35;;;;;;;24.92;14.15;;;;;;;;;;5055910;28;20041;-79
2024/03/20 08:35:04;;;;;;;18.77;12.32;;;;;;;;;;5029904;28;20087;-81
2024/03/20 08:37:35;;;;;;;23.70;13.13;;;;;;;;;;5031179;28;20041;-80
2024/03/20 08:40:03;;;;;;;23.20;13.52;;;8.50;57.20;;;;;;5049873;28;20233;-82
2024/03/20 08:42:30;;;;;;;27.25;13.75;;;;;;;;;;5042079;28;20063;-81
2024/03/20 08:44:56;;;;;;;25.80;14.30;;;;;;;;;;5031600;28;20032;-82
2024/03/20 08:47:22;;;;;;;23.70;13.85;;;;;;;;;;5033812;28;20040;-81
2024/03/20 08:49:52;;;;;;;21.83;13.50;;;;;;;;;;5026637;28;20132;-82
2024/03/20 08:52:18;;;;;;;24.00;14.68;;;;;;;;;;5033319;28;20044;-83
2024/03/20 08:54:44;;;;;;;25.48;14.02;;;;;;;;;;5041948;28;20029;-81
2024/03/20 08:57:16;;;;;;;25.17;14.98;;;9.20;55.40;;;;;;5040678;28;20270;-82
2024/03/20 08:59:42;;;;;;;23.02;12.90;;;;;;;;;;5036400;28;20036;-82
2024/03/20 09:02:12;;;;;;;23.58;13.10;;;9.40;55.10;;;;;;5031791;28;20037;-85
2024/03/20 09:04:54;;;;;;;25.52;13.77;;;;;;;;;;5016481;28;20084;-81
2024/03/20 09:07:20;;;;;;;22.08;13.57;;;9.50;77.80;;;;;;5030962;23;20053;-81
2024/03/20 09:09:47;;;;;;;22.52;13.88;;;;;;;;;;5065019;28;20039;-79
2024/03/20 09:12:13;;;;;;;26.58;15.40;;;;;;;;;;5054275;28;20473;-79
2024/03/20 09:14:41;;;;;;;23.75;13.57;;;;;;;;;;5058208;28;20070;-82
2024/03/20 09:17:07;;;;;;;26.63;14.80;;;;;;;;;;5047636;28;20043;-82
2024/03/20 09:19:33;;;;;;;25.33;13.98;;;;;;;;;;5059884;28;20063;-80
2024/03/20 09:22:00;;;;;;;26.65;14.13;;;;;;;;;;5055636;28;20025;-79
2024/03/20 09:24:28;;;;;;;27.67;15.02;;;;;;;;;;5044397;28;20028;-80
2024/03/20 09:26:55;;;;;;;22.55;13.07;;;10.20;51.70;;;;;;5062193;28;20569;-81
2024/03/20 09:29:22;;;;;;;21.42;13.38;;;;;;;;;;5070627;28;20045;-81
2024/03/20 09:31:53;;;;;;;20.35;11.88;;;;;;;;;;5052215;28;20048;-82
2024/03/20 09:34:19;;;;;;;21.52;13.18;;;;;;;;;;5052948;28;20056;-82
2024/03/20 09:36:46;;;;;;;21.80;11.13;;;10.50;50.40;;;;;;5069782;28;20040;-82
2024/03/20 09:39:16;;;;;;;23.33;13.57;;;10.40;69.30;;;;;;5057230;28;20568;-80
2024/03/20 09:41:42;;;;;;;21.30;13.15;;;;;;;;;;5030605;28;20029;-83
2024/03/20 09:44:12;;;;;;;23.55;12.35;;;10.50;50.10;;;;;;5047354;28;20106;-81
2024/03/20 09:46:38;;;;;;;19.58;10.75;;;10.60;72.50;;;;;;5036257;28;20097;-83
2024/03/20 09:49:05;;;;;;;15.95;9.48;;;;;;;;;;5054129;28;20074;-81
2024/03/20 09:51:35;;;;;;;21.67;13.40;;;;;;;;;;5049797;28;20332;-79
2024/03/20 09:54:01;;;;;;;22.63;12.50;;;;;;;;;;5066920;28;20037;-81
2024/03/20 09:56:29;;;;;;;19.20;11.25;;;10.80;47.90;;;;;;5036500;28;20044;-82
2024/03/20 09:58:55;;;;;;;31.97;12.13;;;;;;;;;;5056078;28;20032;-84
2024/03/20 10:01:22;;;;;;;25.08;14.27;;;10.90;48.50;;;;;;5036294;28;20174;-83
2024/03/20 10:03:55;;;;;;;19.05;12.20;;;10.90;48.00;;;;;;5050212;28;20409;-81
2024/03/20 10:06:27;;;;;;;22.23;12.05;;;;;;;;;;5034941;28;20039;-84
2024/03/20 10:08:54;;;;;;;17.45;12.32;;;;;;;;;;5069485;28;20051;-82
2024/03/20 10:11:22;;;;;;;21.83;13.02;;;;;;;;;;5032820;28;20068;-87
2024/03/20 10:13:48;;;;;;;19.85;13.02;;;11.10;47.10;;;;;;5068380;28;20028;-80
2024/03/20 10:16:14;;;;;;;19.95;12.82;;;11.30;46.90;;;;;;5048953;28;20037;-83
2024/03/20 10:18:42;;;;;;;20.48;12.70;;;11.00;69.00;;;;;;5026901;28;20156;-79
2024/03/20 10:21:09;;;;;;;25.10;11.77;;;;;;;;;;5051763;28;20029;-80
2024/03/20 10:23:44;;;;;;;23.33;11.98;;;11.50;47.40;;;;;;5070057;28;20213;-79
2024/03/20 10:26:16;;;;;;;17.77;10.80;;;;;;;;;;5054147;28;20289;-82
2024/03/20 10:28:50;;;;;;;23.02;12.82;;;;;;;;;;5052410;28;20040;-86
2024/03/20 10:31:20;;;;;;;21.73;13.32;;;;;;;;;;5069013;28;20033;-86
2024/03/20 10:33:47;;;;;;;22.15;13.20;;;;;;;;;;5051217;28;20041;-84
2024/03/20 10:36:17;;;;;;;25.88;13.15;;;;;;;;;;5049267;28;20045;-82
2024/03/20 10:38:43;;;;;;;19.98;12.45;;;;;;;;;;5024545;28;20090;-83
2024/03/20 10:41:12;;;;;;;17.85;11.60;;;;;;;;;;5057540;28;20021;-82
2024/03/20 10:43:38;;;;;;;18.73;12.20;;;;;;;;;;5051223;28;20033;-80
2024/03/20 10:46:06;;;;;;;18.80;11.73;;;;;;;;;;5053914;28;20075;-80
2024/03/20 10:48:35;;;;;;;17.98;11.15;;;;;;;;;;5056744;28;20171;-81
2024/03/20 10:51:16;;;;;;;17.60;11.02;;;12.20;45.80;;;;;;5045888;28;20037;-81
2024/03/20 10:53:42;;;;;;;18.13;12.30;;;;;;;;;;5045552;28;20135;-81
2024/03/20 10:56:08;;;;;;;19.08;11.35;;;;;;;;;;5042779;28;20042;-79
2024/03/20 10:58:34;;;;;;;19.45;12.77;;;;;;;;;;5047767;23;20055;-80
2024/03/20 11:01:00;;;;;;;21.55;12.98;;;;;;;;;;5113555;27;20047;-81
2024/03/20 11:03:51;;;;;;;19.38;11.38;;;12.60;45.00;;;;;;5117778;27;20331;-84
2024/03/20 11:06:30;;;;;;;20.85;13.07;;;;;;;;;;5119062;27;20174;-80
2024/03/20 11:09:06;;;;;;;;;;;12.80;44.90;;;;;;5101651;27;20040;-79
2024/03/20 11:11:32;;;;;;;18.95;11.00;;;;;;;;;;5101706;27;19915;-82
2024/03/20 11:13:59;;;;;;;17.70;10.35;;;13.20;45.50;;;;;;5106115;22;20040;-85
2024/03/20 11:16:27;;;;;;;16.30;10.48;;;;;;;;;;5092474;28;20032;-83
2024/03/20 11:18:54;;;;;;;19.63;12.30;;;;;;;;;;5082367;28;20037;-83
2024/03/20 11:21:21;;;;;;;16.02;10.43;;;;;;;;;;5073193;28;20064;-82
2024/03/20 11:23:52;;;;;;;18.17;11.50;;;;;;;;;;5063769;28;20041;-79
2024/03/20 11:26:19;;;;;;;17.67;11.38;;;;;;;;;;5099684;28;20371;-83
2024/03/20 11:28:47;;;;;;;16.45;10.30;;;;;;;;;;5074337;28;20059;-85
2024/03/20 11:31:13;;;;;;;14.65;9.68;;;;;;;;;;5081162;28;20037;-81
2024/03/20 11:33:42;;;;;;;16.63;10.48;;;;;;;;;;5064509;28;20033;-85
2024/03/20 11:36:14;;;;;;;;;;;13.40;42.60;;;;;;5078825;28;20044;-82
2024/03/20 11:38:41;;;;;;;12.68;7.97;;;;;;;;;;5055795;28;19996;-79
2024/03/20 11:41:12;;;;;;;23.38;9.93;;;13.70;42.30;;;;;;5072646;28;20060;-80
2024/03/20 11:43:46;;;;;;;17.50;8.68;;;;;;;;;;5075657;28;20037;-83
2024/03/20 11:46:26;;;;;;;16.17;10.38;;;14.00;42.30;;;;;;5068425;28;20099;-80
2024/03/20 11:48:58;;;;;;;13.55;8.65;;;;;;;;;;5056556;28;20348;-81
2024/03/20 11:51:26;;;;;;;19.33;9.82;;;;;;;;;;5055279;28;20103;-79
2024/03/20 11:53:55;;;;;;;13.90;9.53;;;;;;;;;;5058745;28;20025;-83
2024/03/20 11:56:22;;;;;;;16.40;9.90;;;14.40;41.30;;;;;;5076917;28;20045;-85
2024/03/20 11:58:53;;;;;;;18.50;10.55;;;;;;;;;;5069314;28;20032;-82
2024/03/20 12:01:20;;;;;;;19.55;9.73;;;;;;;;;;5068519;28;20369;-83
2024/03/20 12:03:49;;;;;;;17.83;9.98;;;;;;;;;;5074085;28;20048;-83
2024/03/20 12:06:16;;;;;;;25.77;10.85;;;;;;;;;;5074023;28;20045;-85
2024/03/20 12:08:47;;;;;;;14.90;10.10;;;14.70;41.40;;;;;;5079091;28;20311;-82
2024/03/20 12:11:17;;;;;;;13.55;7.57;;;;;;;;;;5056678;28;20132;-87
2024/03/20 12:13:44;;;;;;;17.20;10.00;;;;;;;;;;5062922;28;20068;-82
2024/03/20 12:16:11;;;;;;;13.05;8.90;;;;;;;;;;5087598;28;20047;-82
2024/03/20 12:18:38;;;;;;;16.38;9.10;;;;;;;;;;5070666;28;20033;-79
2024/03/20 12:21:04;;;;;;;15.80;9.88;;;;;;;;;;5071272;28;20041;-80
2024/03/20 12:23:32;;;;;;;15.93;9.80;;;;;;;;;;5085614;28;20032;-80
2024/03/20 12:25:58;;;;;;;21.92;12.13;;;;;;;;;;5069129;28;20120;-82
2024/03/20 12:28:25;;;;;;;18.85;11.68;;;;;;;;;;5069534;28;20060;-83
2024/03/20 12:30:51;;;;;;;20.08;12.27;;;;;;;;;;5078291;28;20052;-79
2024/03/20 12:33:20;;;;;;;19.40;9.73;;;;;;;;;;5077021;28;20036;-81
2024/03/20 12:35:46;;;;;;;15.35;9.48;;;;;;;;;;5073317;28;20032;-81
2024/03/20 12:38:13;;;;;;;13.93;9.65;;;;;;;;;;5065972;28;20037;-81
2024/03/20 12:40:43;;;;;;;14.95;9.98;;;15.40;39.10;;;;;;5066980;28;20043;-85
2024/03/20 12:43:12;;;;;;;15.90;9.95;;;15.50;39.20;;;;;;5065970;28;20037;-83
2024/03/20 12:45:38;;;;;;;18.30;10.90;;;;;;;;;;5062480;28;20036;-81
2024/03/20 12:48:07;;;;;;;15.32;10.18;;;;;;;;;;5071491;28;20032;-85
2024/03/20 12:50:34;;;;;;;17.50;9.85;;;;;;;;;;5081363;28;20036;-80
2024/03/20 12:53:00;;;;;;;19.45;11.07;;;;;;;;;;5080696;28;20082;-81
2024/03/20 12:55:27;;;;;;;14.02;9.10;;;;;;;;;;5048323;28;20028;-81
2024/03/20 12:57:55;;;;;;;24.08;10.07;;;;;;;;;;5072769;28;20032;-81
2024/03/20 13:00:23;;;;;;;14.13;8.90;;;;;;;;;;5092465;28;20024;-80
2024/03/20 13:02:49;;;;;;;15.82;8.85;;;;;;;;;;5066905;28;20541;-82
2024/03/20 13:05:17;;;;;;;15.50;10.43;;;;;;;;;;5072231;28;20067;-81
2024/03/20 13:07:44;;;;;;;16.70;11.27;;;;;;;;;;5062276;28;20039;-81
2024/03/20 13:10:11;;;;;;;17.83;12.73;;;27.10;29.80;;;;;;5062588;28;20037;-84
2024/03/20 13:12:38;;;;;;;21.98;11.45;;;;;;;;;;5084138;28;20058;-83
2024/03/20 13:15:06;;;;;;;18.00;12.93;;;;;;;;;;5056212;28;20025;-82
2024/03/20 13:17:33;;;;;;;14.95;12.05;;;36.10;24.10;;;;;;5076084;28;20040;-82
2024/03/20 13:20:00;;;;;;;15.30;13.30;;;;;;;;;;5063490;28;20052;-80
2024/03/20 13:22:26;;;;;;;;;;;36.60;23.40;;;;;;5066494;28;20056;-81
2024/03/20 13:24:52;;;;;;;13.70;12.30;;;;;;;;;;5060069;28;19927;-81
2024/03/20 13:27:20;;;;;;;17.88;11.77;;;;;;;;;;5062344;28;20090;-82
2024/03/20 13:29:47;;;;;;;12.05;10.85;;;;;;;;;;5072609;28;20037;-85
2024/03/20 13:32:22;;;;;;;14.05;11.50;;;;;;;;;;5084266;28;20309;-83
2024/03/20 13:34:49;;;;;;;14.18;11.07;;;;;;;;;;5077443;28;20062;-81
2024/03/20 13:37:21;;;;;;;13.95;11.05;;;;;;;;;;5080604;28;20245;-84
2024/03/20 13:40:05;;;;;;;15.13;11.80;;;;;;;;;;5062115;28;20033;-82
2024/03/20 13:42:34;;;;;;;14.00;12.25;;;;;;;;;;5048834;28;20049;-81
2024/03/20 13:45:04;;;;;;;13.18;11.57;;;35.90;23.30;;;;;;5064489;28;20028;-80
2024/03/20 13:47:30;;;;;;;13.38;11.65;;;;;;;;;;5061711;28;20132;-80
2024/03/20 13:49:56;;;;;;;12.35;11.07;;;37.50;22.90;;;;;;5058305;28;20044;-77
2024/03/20 13:52:22;;;;;;;12.45;10.82;;;;;;;;;;5057646;28;20037;-78
2024/03/20 13:54:48;;;;;;;11.95;10.10;;;40.60;21.80;;;;;;5041944;28;20294;-78
2024/03/20 13:57:14;;;;;;;12.85;11.00;;;;;;;;;;5092600;28;20043;-80
2024/03/20 13:59:41;;;;;;;16.73;10.98;;;37.50;21.80;;;;;;5095094;28;20020;-81